Terminal Aerodrome Forecast
Issued by NWS

Home | Current Version | Previous Version | Text Only | Print | Product List | Glossary On
Versions: 1 2 3 4 5 6 7 8 9 10 11 12 13
000
FTUS44 KTSA 291100
TAFFYV
TAF
KFYV 291132Z 2912/3012 31007KT P6SM BKN250
     FM291500 34014G20KT P6SM BKN025
     FM292000 34012G20KT P6SM SCT025 BKN250
     FM300000 35005KT P6SM SCT250=

USA.gov is the U.S. government's official web portal to all federal, state and local government web resources and services.